createdAt,value
2023-04-28T00:00:20.935Z,11.20
2023-04-28T00:00:43.693Z,11.10
2023-04-28T00:01:06.520Z,11.10
2023-04-28T00:01:29.400Z,11.20
2023-04-28T00:01:52.264Z,11.20
2023-04-28T00:02:15.264Z,11.10
2023-04-28T00:02:38.121Z,11.10
2023-04-28T00:03:01.263Z,11.10
2023-04-28T00:03:24.586Z,11.10
2023-04-28T00:03:48.825Z,11.10
2023-04-28T00:04:12.085Z,11.10
2023-04-28T00:04:35.426Z,11.10
2023-04-28T00:04:58.622Z,11.10
2023-04-28T00:05:23.966Z,11.10
2023-04-28T00:05:47.831Z,11.10
2023-04-28T00:06:12.014Z,11.10
2023-04-28T00:06:34.753Z,11.20
2023-04-28T00:06:59.192Z,11.10
2023-04-28T00:07:22.054Z,11.20
2023-04-28T00:07:44.926Z,11.20
2023-04-28T00:08:07.844Z,11.20
2023-04-28T00:08:30.676Z,11.20
2023-04-28T00:08:53.524Z,11.20
2023-04-28T00:09:17.032Z,11.10
2023-04-28T00:09:39.811Z,11.20
2023-04-28T00:10:02.622Z,11.20
2023-04-28T00:10:25.776Z,11.20
2023-04-28T00:10:48.501Z,11.20
2023-04-28T00:11:11.311Z,11.20
2023-04-28T00:11:34.331Z,11.20
2023-04-28T00:11:57.135Z,11.20
2023-04-28T00:12:19.897Z,11.10
2023-04-28T00:12:42.714Z,11.20
2023-04-28T00:13:05.552Z,11.20
2023-04-28T00:13:28.346Z,11.10
2023-04-28T00:13:51.906Z,11.10
2023-04-28T00:14:14.898Z,11.10
2023-04-28T00:14:38.316Z,11.10
2023-04-28T00:15:01.216Z,11.10
2023-04-28T00:15:24.139Z,11.10
2023-04-28T00:15:46.966Z,11.00
2023-04-28T00:16:09.774Z,11.00
2023-04-28T00:16:32.726Z,11.00
2023-04-28T00:16:58.022Z,11.00
2023-04-28T00:17:21.432Z,11.00
2023-04-28T00:17:44.516Z,11.00
2023-04-28T00:18:07.721Z,11.00
2023-04-28T00:18:30.704Z,11.00
2023-04-28T00:18:56.751Z,11.00
2023-04-28T00:19:19.606Z,11.00
2023-04-28T00:19:42.425Z,11.00
2023-04-28T00:20:06.911Z,10.90
2023-04-28T00:20:29.582Z,11.00
2023-04-28T00:20:52.333Z,11.00
2023-04-28T00:21:15.065Z,10.90
2023-04-28T00:21:40.349Z,10.90
2023-04-28T00:22:05.366Z,10.90
2023-04-28T00:22:28.186Z,10.90
2023-04-28T00:22:51.102Z,10.90
2023-04-28T00:23:13.834Z,10.90
2023-04-28T00:23:36.555Z,10.90
2023-04-28T00:23:59.291Z,10.90
2023-04-28T00:24:22.186Z,10.90
2023-04-28T00:24:45.018Z,10.90
2023-04-28T00:25:09.204Z,10.90
2023-04-28T00:25:32.028Z,10.90
2023-04-28T00:25:57.482Z,10.90
2023-04-28T00:26:21.025Z,11.00
2023-04-28T00:26:43.764Z,11.00
2023-04-28T00:27:09.250Z,10.90
2023-04-28T00:27:33.478Z,10.90
2023-04-28T00:27:56.384Z,10.90
2023-04-28T00:28:32.798Z,10.90
2023-04-28T00:28:57.005Z,10.90
2023-04-28T00:29:19.866Z,10.90
2023-04-28T00:29:42.656Z,10.90
2023-04-28T00:30:07.749Z,10.90
2023-04-28T00:30:30.955Z,10.90
2023-04-28T00:30:56.522Z,10.80
2023-04-28T00:31:19.338Z,10.80
2023-04-28T00:31:42.201Z,10.80
2023-04-28T00:32:06.441Z,10.70
2023-04-28T00:32:29.646Z,10.70
2023-04-28T00:32:52.692Z,10.70
2023-04-28T00:33:16.029Z,10.70
2023-04-28T00:33:38.816Z,10.70
2023-04-28T00:34:01.710Z,10.60
2023-04-28T00:34:24.635Z,10.60
2023-04-28T00:34:47.381Z,10.60
2023-04-28T00:35:10.419Z,10.60
2023-04-28T00:35:33.251Z,10.60
2023-04-28T00:36:00.878Z,10.50
2023-04-28T00:36:23.643Z,10.50
2023-04-28T00:36:46.362Z,10.50
2023-04-28T00:37:10.794Z,10.50
2023-04-28T00:37:36.878Z,10.40
2023-04-28T00:37:59.691Z,10.40
2023-04-28T00:38:25.568Z,10.40
2023-04-28T00:38:48.431Z,10.40
2023-04-28T00:39:11.369Z,10.40
2023-04-28T00:39:34.232Z,10.40
2023-04-28T00:39:59.236Z,10.40
2023-04-28T00:40:22.454Z,10.40
2023-04-28T00:40:45.298Z,10.40
2023-04-28T00:41:09.777Z,10.40
2023-04-28T00:41:34.821Z,10.40
2023-04-28T00:41:57.963Z,10.40
2023-04-28T00:42:20.847Z,10.40
2023-04-28T00:42:43.706Z,10.40
2023-04-28T00:43:06.508Z,10.40
2023-04-28T00:43:32.000Z,10.50
2023-04-28T00:43:55.193Z,10.40
2023-04-28T00:44:18.165Z,10.50
2023-04-28T00:44:41.791Z,10.40
2023-04-28T00:45:07.400Z,10.40
2023-04-28T00:45:30.223Z,10.40
2023-04-28T00:45:53.097Z,10.50
2023-04-28T00:46:22.216Z,10.50
2023-04-28T00:46:45.836Z,10.50
2023-04-28T00:47:10.274Z,10.50
2023-04-28T00:47:33.432Z,10.50
2023-04-28T00:47:57.013Z,10.50
2023-04-28T00:48:23.922Z,10.50
2023-04-28T00:48:46.818Z,10.50
2023-04-28T00:49:09.716Z,10.40
2023-04-28T00:49:34.384Z,10.40
2023-04-28T00:49:57.430Z,10.40
2023-04-28T00:50:20.424Z,10.70
2023-04-28T00:50:43.449Z,10.40
2023-04-28T00:51:07.103Z,10.30
2023-04-28T00:51:29.954Z,10.30
2023-04-28T00:51:52.740Z,10.30
2023-04-28T00:52:17.044Z,10.30
2023-04-28T00:52:39.961Z,10.40
2023-04-28T00:53:03.866Z,10.40
2023-04-28T00:53:26.650Z,10.30
2023-04-28T00:53:49.338Z,10.30
2023-04-28T00:54:14.265Z,10.30
2023-04-28T00:54:37.993Z,10.30
2023-04-28T00:55:01.029Z,10.30
2023-04-28T00:55:23.904Z,10.30
2023-04-28T00:55:46.688Z,10.30
2023-04-28T00:56:09.670Z,10.30
2023-04-28T00:56:34.617Z,10.30
2023-04-28T00:56:57.397Z,10.30
2023-04-28T00:57:22.585Z,10.20
2023-04-28T00:57:45.827Z,10.20
2023-04-28T00:58:08.600Z,10.20
2023-04-28T00:58:34.503Z,10.20
2023-04-28T00:58:57.406Z,10.20
2023-04-28T00:59:20.187Z,10.10
2023-04-28T00:59:43.074Z,10.10
2023-04-28T01:00:10.166Z,10.10
2023-04-28T01:00:33.096Z,10.00
2023-04-28T01:01:03.590Z,10.10
2023-04-28T01:01:26.517Z,10.10
2023-04-28T01:01:49.574Z,10.00
2023-04-28T01:02:17.688Z,10.00
2023-04-28T01:02:40.644Z,10.00
2023-04-28T01:03:03.602Z,10.00
2023-04-28T01:03:29.217Z,9.90
2023-04-28T01:03:52.557Z,9.90
2023-04-28T01:04:19.500Z,9.90
2023-04-28T01:04:42.894Z,9.90
2023-04-28T01:05:08.476Z,9.90
2023-04-28T01:05:31.240Z,9.90
2023-04-28T01:05:54.094Z,10.30
2023-04-28T01:06:17.147Z,9.80
2023-04-28T01:06:39.926Z,9.80
2023-04-28T01:07:04.837Z,9.80
2023-04-28T01:07:29.198Z,9.80
2023-04-28T01:07:54.422Z,9.80
2023-04-28T01:08:17.171Z,9.80
2023-04-28T01:08:42.145Z,9.80
2023-04-28T01:09:06.433Z,9.70
2023-04-28T01:09:31.427Z,9.80
2023-04-28T01:09:54.315Z,9.70
2023-04-28T01:10:20.160Z,9.70
2023-04-28T01:10:45.294Z,9.70
2023-04-28T01:11:10.444Z,9.70
2023-04-28T01:11:33.215Z,9.70
2023-04-28T01:11:56.065Z,9.70
2023-04-28T01:12:18.918Z,9.70
2023-04-28T01:12:44.104Z,9.70
2023-04-28T01:13:07.385Z,9.60
2023-04-28T01:13:32.342Z,9.60
2023-04-28T01:13:57.664Z,9.60
2023-04-28T01:14:22.854Z,9.60
2023-04-28T01:14:45.616Z,9.60
2023-04-28T01:15:12.318Z,9.60
2023-04-28T01:15:35.096Z,9.60
2023-04-28T01:15:57.935Z,9.60
2023-04-28T01:16:23.237Z,9.50
2023-04-28T01:16:46.082Z,9.60
2023-04-28T01:17:08.969Z,9.60
2023-04-28T01:17:31.774Z,9.50
2023-04-28T01:17:54.648Z,9.50
2023-04-28T01:18:17.484Z,9.50
2023-04-28T01:18:41.813Z,9.50
2023-04-28T01:19:04.548Z,9.50
2023-04-28T01:19:28.054Z,9.50
2023-04-28T01:19:53.213Z,9.50
2023-04-28T01:20:16.213Z,9.50
2023-04-28T01:20:39.215Z,9.50
2023-04-28T01:21:04.114Z,9.50
2023-04-28T01:21:29.484Z,9.50
2023-04-28T01:21:52.353Z,9.50
2023-04-28T01:22:16.567Z,9.40
2023-04-28T01:22:40.900Z,9.50
2023-04-28T01:23:03.658Z,9.50
2023-04-28T01:23:26.558Z,9.50
2023-04-28T01:23:53.151Z,9.50
2023-04-28T01:24:16.753Z,9.50
2023-04-28T01:24:42.879Z,9.50
2023-04-28T01:25:09.232Z,9.40
2023-04-28T01:25:32.030Z,9.50
2023-04-28T01:25:59.593Z,9.50
2023-04-28T01:26:22.959Z,9.50
2023-04-28T01:26:46.494Z,9.40
2023-04-28T01:27:09.299Z,9.40
2023-04-28T01:27:34.298Z,9.50
2023-04-28T01:27:57.040Z,9.40
2023-04-28T01:28:19.888Z,9.40
2023-04-28T01:28:42.665Z,9.40
2023-04-28T01:29:05.571Z,9.40
2023-04-28T01:29:30.783Z,9.40
2023-04-28T01:29:55.988Z,9.40
2023-04-28T01:30:18.955Z,9.40
2023-04-28T01:30:44.112Z,9.40
2023-04-28T01:31:06.984Z,9.40
2023-04-28T01:31:31.350Z,9.40
2023-04-28T01:31:57.263Z,9.40
2023-04-28T01:32:20.235Z,9.30
2023-04-28T01:32:43.222Z,9.30
2023-04-28T01:33:08.481Z,9.30
2023-04-28T01:33:33.860Z,9.30
2023-04-28T01:33:59.175Z,9.30
2023-04-28T01:34:21.990Z,9.30
2023-04-28T01:34:46.996Z,9.30
2023-04-28T01:35:10.141Z,9.30
2023-04-28T01:35:33.006Z,9.20
2023-04-28T01:35:59.004Z,9.30
2023-04-28T01:36:24.049Z,9.20
2023-04-28T01:36:46.962Z,9.30
2023-04-28T01:37:11.898Z,9.20
2023-04-28T01:37:35.848Z,9.30
2023-04-28T01:38:00.819Z,9.20
2023-04-28T01:38:23.552Z,9.20
2023-04-28T01:38:46.415Z,9.20
2023-04-28T01:39:10.900Z,9.20
2023-04-28T01:39:35.332Z,9.20
2023-04-28T01:39:58.135Z,9.30
2023-04-28T01:40:22.987Z,9.20
2023-04-28T01:40:45.824Z,9.20
2023-04-28T01:41:08.647Z,9.20
2023-04-28T01:41:34.695Z,9.20
2023-04-28T01:41:57.613Z,9.20
2023-04-28T01:42:22.683Z,9.20
2023-04-28T01:42:47.852Z,9.20
2023-04-28T01:43:10.629Z,9.20
2023-04-28T01:43:33.364Z,9.20
2023-04-28T01:43:56.206Z,9.10
2023-04-28T01:44:21.122Z,9.10
2023-04-28T01:44:43.915Z,9.10
2023-04-28T01:45:08.846Z,9.10
2023-04-28T01:45:31.648Z,9.10
2023-04-28T01:45:56.975Z,9.10
2023-04-28T01:46:19.885Z,9.10
2023-04-28T01:46:45.269Z,9.10
2023-04-28T01:47:10.537Z,9.10
2023-04-28T01:47:35.857Z,9.10
2023-04-28T01:47:58.658Z,9.10
2023-04-28T01:48:23.814Z,9.10
2023-04-28T01:48:49.078Z,9.10
2023-04-28T01:49:14.283Z,9.10
2023-04-28T01:49:40.056Z,9.00
2023-04-28T01:50:02.862Z,9.00
2023-04-28T01:50:25.851Z,9.00
2023-04-28T01:50:48.591Z,9.00
2023-04-28T01:51:13.554Z,9.00
2023-04-28T01:51:36.283Z,9.00
2023-04-28T01:51:59.114Z,9.00
2023-04-28T01:52:24.258Z,9.00
2023-04-28T01:52:47.039Z,8.90
2023-04-28T01:53:09.930Z,8.90
2023-04-28T01:53:32.696Z,8.90
2023-04-28T01:53:57.859Z,8.90
2023-04-28T01:54:22.074Z,8.90
2023-04-28T01:54:47.174Z,8.90
2023-04-28T01:55:10.181Z,8.90
2023-04-28T01:55:32.976Z,8.90
2023-04-28T01:55:56.799Z,8.90
2023-04-28T01:56:21.692Z,8.90
2023-04-28T01:56:44.434Z,8.90
2023-04-28T01:57:10.113Z,8.80
2023-04-28T01:57:35.297Z,8.80
2023-04-28T01:57:58.591Z,8.80
2023-04-28T01:58:22.041Z,8.80
2023-04-28T01:58:47.851Z,8.80
2023-04-28T01:59:10.612Z,8.80
2023-04-28T01:59:36.354Z,8.80
2023-04-28T02:00:00.570Z,8.80
2023-04-28T02:00:23.402Z,8.70
2023-04-28T02:00:46.627Z,8.70
2023-04-28T02:01:09.407Z,8.70
2023-04-28T02:01:32.273Z,8.70
2023-04-28T02:01:55.398Z,8.70
2023-04-28T02:02:18.299Z,8.70
2023-04-28T02:02:43.589Z,8.70
2023-04-28T02:03:06.981Z,8.70
2023-04-28T02:03:29.872Z,8.80
2023-04-28T02:03:55.449Z,8.80
2023-04-28T02:04:18.942Z,8.70
2023-04-28T02:04:42.263Z,8.70
2023-04-28T02:05:07.961Z,8.70
2023-04-28T02:05:30.728Z,8.70
2023-04-28T02:05:53.553Z,8.70
2023-04-28T02:06:16.319Z,8.70
2023-04-28T02:06:39.058Z,8.70
2023-04-28T02:07:01.874Z,8.70
2023-04-28T02:07:27.125Z,8.60
2023-04-28T02:07:49.966Z,8.70
2023-04-28T02:08:12.727Z,8.70
2023-04-28T02:08:35.720Z,8.70
2023-04-28T02:09:00.657Z,8.60
2023-04-28T02:09:27.984Z,8.70
2023-04-28T02:09:50.846Z,8.60
2023-04-28T02:10:13.550Z,8.70
2023-04-28T02:10:36.441Z,8.70
2023-04-28T02:11:02.267Z,8.70
2023-04-28T02:11:25.047Z,8.70
2023-04-28T02:11:50.016Z,8.60
2023-04-28T02:12:15.238Z,8.70
2023-04-28T02:12:40.543Z,8.70
2023-04-28T02:13:03.268Z,8.70
2023-04-28T02:13:26.109Z,8.80
2023-04-28T02:13:48.911Z,8.80
2023-04-28T02:14:11.723Z,8.70
2023-04-28T02:14:34.509Z,8.70
2023-04-28T02:14:57.591Z,8.80
2023-04-28T02:15:20.271Z,8.80
2023-04-28T02:15:45.280Z,8.80
2023-04-28T02:16:08.281Z,8.80
2023-04-28T02:16:33.998Z,8.80
2023-04-28T02:16:57.247Z,8.80
2023-04-28T02:17:20.187Z,8.80
2023-04-28T02:17:45.296Z,8.80
2023-04-28T02:18:10.470Z,8.80
2023-04-28T02:18:33.300Z,8.80
2023-04-28T02:19:00.921Z,8.80
2023-04-28T02:19:23.705Z,8.80
2023-04-28T02:19:48.989Z,8.80
2023-04-28T02:20:14.644Z,8.80
2023-04-28T02:20:39.624Z,8.80
2023-04-28T02:21:10.283Z,8.80
2023-04-28T02:21:35.236Z,8.80
2023-04-28T02:21:58.161Z,8.70
2023-04-28T02:22:21.480Z,8.80
2023-04-28T02:22:44.176Z,8.80
2023-04-28T02:23:06.996Z,8.80
2023-04-28T02:23:29.915Z,8.80
2023-04-28T02:23:52.786Z,8.80
2023-04-28T02:24:18.440Z,8.80
2023-04-28T02:24:45.572Z,8.80
2023-04-28T02:25:09.524Z,8.80
2023-04-28T02:25:32.421Z,8.80
2023-04-28T02:26:01.589Z,8.80
2023-04-28T02:26:24.828Z,8.80
2023-04-28T02:26:47.939Z,8.80
2023-04-28T02:27:13.622Z,8.80
2023-04-28T02:27:37.214Z,8.80
2023-04-28T02:28:00.031Z,8.80
2023-04-28T02:28:22.956Z,8.80
2023-04-28T02:28:48.112Z,8.80
2023-04-28T02:29:13.414Z,8.80
2023-04-28T02:29:36.348Z,8.80
2023-04-28T02:29:59.189Z,8.80
2023-04-28T02:30:25.170Z,8.80
2023-04-28T02:30:47.941Z,8.80
2023-04-28T02:31:14.228Z,8.80
2023-04-28T02:31:37.139Z,8.80
2023-04-28T02:32:04.981Z,8.80
2023-04-28T02:32:27.782Z,8.70
2023-04-28T02:32:50.850Z,8.70
2023-04-28T02:33:15.796Z,8.70
2023-04-28T02:33:38.750Z,8.70
2023-04-28T02:34:04.337Z,8.70
2023-04-28T02:34:30.136Z,8.70
2023-04-28T02:34:54.916Z,8.70
2023-04-28T02:35:19.859Z,8.70
2023-04-28T02:35:43.350Z,8.60
2023-04-28T02:36:09.266Z,8.60
2023-04-28T02:36:34.458Z,8.60
2023-04-28T02:36:57.224Z,8.60
2023-04-28T02:37:23.160Z,8.60
2023-04-28T02:37:46.598Z,8.60
2023-04-28T02:38:09.896Z,8.60
2023-04-28T02:38:32.904Z,8.60
2023-04-28T02:38:56.207Z,8.60
2023-04-28T02:39:22.078Z,8.60
2023-04-28T02:39:46.578Z,8.60
2023-04-28T02:40:10.234Z,8.60
2023-04-28T02:40:33.152Z,8.50
2023-04-28T02:41:01.197Z,8.50
2023-04-28T02:41:26.461Z,8.60
2023-04-28T02:41:49.307Z,8.60
2023-04-28T02:42:14.647Z,8.50
2023-04-28T02:42:37.687Z,8.50
2023-04-28T02:43:00.651Z,8.50
2023-04-28T02:43:26.625Z,8.50
2023-04-28T02:43:49.456Z,8.50
2023-04-28T02:44:12.424Z,8.50
2023-04-28T02:44:35.295Z,8.50
2023-04-28T02:45:00.228Z,8.50
2023-04-28T02:45:23.056Z,8.50
2023-04-28T02:45:45.825Z,8.50
2023-04-28T02:46:08.726Z,8.50
2023-04-28T02:46:31.798Z,8.50
2023-04-28T02:47:00.714Z,8.50
2023-04-28T02:47:23.584Z,8.50
2023-04-28T02:47:48.853Z,8.50
2023-04-28T02:48:12.278Z,8.40
2023-04-28T02:48:37.604Z,8.40
2023-04-28T02:49:02.641Z,8.50
2023-04-28T02:49:25.603Z,8.50
2023-04-28T02:49:50.586Z,8.40
2023-04-28T02:50:13.433Z,8.40
2023-04-28T02:50:36.605Z,8.40
2023-04-28T02:50:59.535Z,8.40
2023-04-28T02:51:24.823Z,8.40
2023-04-28T02:51:47.681Z,8.50
2023-04-28T02:52:12.761Z,8.40
2023-04-28T02:52:36.070Z,8.40
2023-04-28T02:52:58.946Z,8.40
2023-04-28T02:53:24.604Z,8.40
2023-04-28T02:53:47.475Z,8.40
2023-04-28T02:54:10.409Z,8.40
2023-04-28T02:54:35.368Z,8.40
2023-04-28T02:54:59.682Z,8.40
2023-04-28T02:55:24.880Z,8.40
2023-04-28T02:55:47.735Z,8.40
2023-04-28T02:56:12.849Z,8.40
2023-04-28T02:56:36.047Z,8.40
2023-04-28T02:56:58.921Z,8.40
2023-04-28T02:57:23.930Z,8.50
2023-04-28T02:57:46.751Z,8.40
2023-04-28T02:58:11.983Z,8.40
2023-04-28T02:58:37.253Z,8.40
2023-04-28T02:59:02.479Z,8.40
2023-04-28T02:59:25.730Z,8.40
2023-04-28T02:59:48.416Z,8.40
2023-04-28T03:00:15.225Z,8.40
2023-04-28T03:00:37.988Z,8.40
2023-04-28T03:01:01.416Z,8.40
2023-04-28T03:01:26.713Z,8.40
2023-04-28T03:01:49.936Z,8.30
2023-04-28T03:02:15.962Z,8.30
2023-04-28T03:02:38.967Z,8.30
2023-04-28T03:03:04.594Z,8.30
2023-04-28T03:03:27.747Z,8.30
2023-04-28T03:03:51.049Z,8.30
2023-04-28T03:04:17.009Z,8.30
2023-04-28T03:04:40.207Z,8.30
2023-04-28T03:05:03.112Z,8.30
2023-04-28T03:05:28.327Z,8.30
2023-04-28T03:05:53.516Z,8.30
2023-04-28T03:06:16.569Z,8.30
2023-04-28T03:06:42.348Z,8.30
2023-04-28T03:07:05.138Z,8.30
2023-04-28T03:07:28.386Z,8.30
2023-04-28T03:07:53.370Z,8.30
2023-04-28T03:08:18.625Z,8.30
2023-04-28T03:08:41.552Z,8.30
2023-04-28T03:09:06.894Z,8.30
2023-04-28T03:09:29.676Z,8.30
2023-04-28T03:09:52.526Z,8.30
2023-04-28T03:10:16.884Z,8.30
2023-04-28T03:10:42.841Z,8.30
2023-04-28T03:11:06.191Z,8.30
2023-04-28T03:11:31.542Z,8.30
2023-04-28T03:11:54.492Z,8.30
2023-04-28T03:12:19.730Z,8.30
2023-04-28T03:12:45.064Z,8.30
2023-04-28T03:13:07.955Z,8.30
2023-04-28T03:13:33.451Z,8.30
2023-04-28T03:13:58.644Z,8.30
2023-04-28T03:14:24.096Z,8.20
2023-04-28T03:14:46.967Z,8.30
2023-04-28T03:15:14.087Z,8.20
2023-04-28T03:15:37.221Z,8.20
2023-04-28T03:16:03.453Z,8.30
2023-04-28T03:16:26.569Z,8.30
2023-04-28T03:16:49.578Z,8.20
2023-04-28T03:17:14.480Z,8.20
2023-04-28T03:17:39.188Z,8.20
2023-04-28T03:18:02.175Z,8.20
2023-04-28T03:18:25.042Z,8.20
2023-04-28T03:18:47.812Z,8.20
2023-04-28T03:19:10.668Z,8.10
2023-04-28T03:19:33.541Z,8.10
2023-04-28T03:19:56.421Z,8.10
2023-04-28T03:20:19.162Z,8.10
2023-04-28T03:20:42.415Z,8.10
2023-04-28T03:21:05.268Z,8.10
2023-04-28T03:21:29.152Z,8.00
2023-04-28T03:21:51.975Z,8.00
2023-04-28T03:22:16.912Z,8.00
2023-04-28T03:22:39.692Z,8.00
2023-04-28T03:23:02.800Z,8.00
2023-04-28T03:23:25.927Z,7.90
2023-04-28T03:23:49.753Z,8.00
2023-04-28T03:24:12.700Z,8.00
2023-04-28T03:24:35.707Z,8.00
2023-04-28T03:24:58.563Z,8.00
2023-04-28T03:25:22.746Z,8.00
2023-04-28T03:25:45.718Z,8.00
2023-04-28T03:26:08.506Z,8.00
2023-04-28T03:26:33.450Z,8.00
2023-04-28T03:26:57.153Z,8.00
2023-04-28T03:27:19.896Z,8.00
2023-04-28T03:27:42.674Z,8.00
2023-04-28T03:28:06.329Z,8.00
2023-04-28T03:28:29.677Z,8.00
2023-04-28T03:28:53.296Z,8.00
2023-04-28T03:29:16.371Z,8.00
2023-04-28T03:29:39.160Z,8.00
2023-04-28T03:30:02.088Z,8.00
2023-04-28T03:30:24.932Z,8.00
2023-04-28T03:30:47.695Z,8.00
2023-04-28T03:31:10.787Z,8.00
2023-04-28T03:31:33.671Z,8.00
2023-04-28T03:31:56.663Z,8.00
2023-04-28T03:32:20.036Z,8.00
2023-04-28T03:32:42.948Z,8.00
2023-04-28T03:33:05.657Z,8.00
2023-04-28T03:33:28.648Z,8.00
2023-04-28T03:33:51.632Z,8.00
2023-04-28T03:34:14.705Z,8.00
2023-04-28T03:34:37.896Z,8.00
2023-04-28T03:35:00.692Z,8.00
2023-04-28T03:35:23.555Z,8.00
2023-04-28T03:35:46.655Z,8.00
2023-04-28T03:36:10.215Z,8.00
2023-04-28T03:36:33.452Z,8.00
2023-04-28T03:36:58.452Z,8.00
2023-04-28T03:37:21.173Z,8.10
2023-04-28T03:37:44.178Z,8.10
2023-04-28T03:38:07.258Z,8.10
2023-04-28T03:38:30.097Z,8.10
2023-04-28T03:38:53.000Z,8.10
2023-04-28T03:39:16.090Z,8.00
2023-04-28T03:39:38.906Z,8.10
2023-04-28T03:40:01.780Z,8.10
2023-04-28T03:40:26.352Z,8.00
2023-04-28T03:40:49.189Z,8.00
2023-04-28T03:41:12.395Z,8.00
2023-04-28T03:41:35.269Z,8.00
2023-04-28T03:41:58.285Z,8.00
2023-04-28T03:42:21.061Z,8.00
2023-04-28T03:42:46.246Z,8.00
2023-04-28T03:43:09.083Z,7.90
2023-04-28T03:43:33.347Z,7.90
2023-04-28T03:43:56.955Z,7.90
2023-04-28T03:44:19.890Z,7.90
2023-04-28T03:44:42.786Z,7.90
2023-04-28T03:45:06.470Z,7.90
2023-04-28T03:45:29.814Z,7.90
2023-04-28T03:45:52.824Z,7.90
2023-04-28T03:46:15.680Z,7.90
2023-04-28T03:46:40.895Z,7.90
2023-04-28T03:47:03.660Z,7.90
2023-04-28T03:47:29.056Z,7.90
2023-04-28T03:47:51.943Z,7.90
2023-04-28T03:48:14.793Z,7.90
2023-04-28T03:48:37.668Z,7.90
2023-04-28T03:49:02.338Z,7.90
2023-04-28T03:49:25.245Z,7.90
2023-04-28T03:49:48.072Z,7.90
2023-04-28T03:50:11.310Z,7.90
2023-04-28T03:50:34.190Z,7.90
2023-04-28T03:50:57.005Z,7.90
2023-04-28T03:51:19.803Z,7.90
2023-04-28T03:51:42.687Z,7.90
2023-04-28T03:52:05.478Z,7.90
2023-04-28T03:52:31.947Z,7.90
2023-04-28T03:52:54.810Z,7.90
2023-04-28T03:53:17.682Z,7.90
2023-04-28T03:53:40.646Z,7.90
2023-04-28T03:54:03.480Z,7.90
2023-04-28T03:54:26.402Z,7.80
2023-04-28T03:54:49.309Z,7.80
2023-04-28T03:55:12.169Z,7.80
2023-04-28T03:55:36.522Z,7.80
2023-04-28T03:55:59.323Z,7.80
2023-04-28T03:56:22.292Z,7.90
2023-04-28T03:56:45.073Z,7.90
2023-04-28T03:57:08.007Z,7.90
2023-04-28T03:57:30.898Z,7.90
2023-04-28T03:57:53.718Z,7.90
2023-04-28T03:58:16.852Z,7.90
2023-04-28T03:58:39.698Z,8.00
2023-04-28T03:59:04.880Z,8.00
2023-04-28T03:59:27.904Z,8.00
2023-04-28T03:59:51.630Z,8.00
2023-04-28T04:00:15.021Z,8.00
2023-04-28T04:00:37.938Z,8.10
2023-04-28T04:01:01.341Z,8.10
2023-04-28T04:01:25.480Z,8.10
2023-04-28T04:01:49.050Z,8.10
2023-04-28T04:02:14.397Z,8.10
2023-04-28T04:02:37.392Z,8.10
2023-04-28T04:03:01.126Z,8.10
2023-04-28T04:03:27.251Z,8.10
2023-04-28T04:03:50.473Z,8.10
2023-04-28T04:04:14.346Z,8.00
2023-04-28T04:04:37.821Z,8.10
2023-04-28T04:05:01.120Z,8.10
2023-04-28T04:05:24.311Z,8.20
2023-04-28T04:05:47.686Z,8.10
2023-04-28T04:06:10.842Z,8.20
2023-04-28T04:06:34.166Z,8.20
2023-04-28T04:06:56.951Z,8.20
2023-04-28T04:07:19.702Z,8.20
2023-04-28T04:07:42.539Z,8.20
2023-04-28T04:08:06.300Z,8.20
2023-04-28T04:08:29.073Z,8.30
2023-04-28T04:08:51.826Z,8.30
2023-04-28T04:09:14.694Z,8.20
2023-04-28T04:09:37.570Z,8.20
2023-04-28T04:10:01.413Z,8.30
2023-04-28T04:10:26.287Z,8.30
2023-04-28T04:10:50.757Z,8.30
2023-04-28T04:11:13.528Z,8.30
2023-04-28T04:11:36.224Z,8.30
2023-04-28T04:11:58.949Z,8.30
2023-04-28T04:12:22.278Z,8.30
2023-04-28T04:12:45.147Z,8.30
2023-04-28T04:13:08.072Z,8.40
2023-04-28T04:13:30.931Z,8.50
2023-04-28T04:13:53.781Z,8.40
2023-04-28T04:14:16.973Z,8.50
2023-04-28T04:14:40.080Z,8.50
2023-04-28T04:15:03.767Z,8.50
2023-04-28T04:15:26.629Z,8.50
2023-04-28T04:15:50.703Z,8.50
2023-04-28T04:16:16.169Z,8.50
2023-04-28T04:16:39.737Z,8.60
2023-04-28T04:17:02.609Z,8.60
2023-04-28T04:17:28.017Z,8.60
2023-04-28T04:17:50.972Z,8.50
2023-04-28T04:18:15.278Z,8.50
2023-04-28T04:18:38.067Z,8.50
2023-04-28T04:19:00.943Z,8.50
2023-04-28T04:19:26.663Z,8.50
2023-04-28T04:19:49.715Z,8.50
2023-04-28T04:20:12.977Z,8.50
2023-04-28T04:20:35.827Z,8.50
2023-04-28T04:20:59.186Z,8.50
2023-04-28T04:21:22.128Z,8.50
2023-04-28T04:21:44.913Z,8.50
2023-04-28T04:22:07.690Z,8.50
2023-04-28T04:22:30.549Z,8.50
2023-04-28T04:22:54.489Z,8.60
2023-04-28T04:23:17.320Z,8.50
2023-04-28T04:23:40.044Z,8.50
2023-04-28T04:24:02.809Z,8.50
2023-04-28T04:24:27.724Z,8.50
2023-04-28T04:24:51.398Z,8.50
2023-04-28T04:25:17.332Z,8.50
2023-04-28T04:25:40.146Z,8.60
2023-04-28T04:26:04.378Z,8.50
2023-04-28T04:26:27.095Z,8.60
2023-04-28T04:26:49.949Z,8.50
2023-04-28T04:27:12.782Z,8.60
2023-04-28T04:27:35.528Z,8.50
2023-04-28T04:28:00.710Z,8.50
2023-04-28T04:28:23.550Z,8.60
2023-04-28T04:28:46.382Z,8.60
2023-04-28T04:29:09.308Z,8.60
2023-04-28T04:29:32.177Z,8.60
2023-04-28T04:29:54.995Z,8.60
2023-04-28T04:30:17.889Z,8.60
2023-04-28T04:30:40.595Z,8.60
2023-04-28T04:31:03.620Z,8.70
2023-04-28T04:31:27.068Z,8.60
2023-04-28T04:31:49.949Z,8.60
2023-04-28T04:32:13.311Z,8.60
2023-04-28T04:32:36.138Z,8.60
2023-04-28T04:33:01.528Z,8.60
2023-04-28T04:33:24.367Z,8.60
2023-04-28T04:33:47.243Z,8.60
2023-04-28T04:34:12.281Z,8.60
2023-04-28T04:34:35.078Z,8.60
2023-04-28T04:34:57.823Z,8.60
2023-04-28T04:35:20.689Z,8.60
2023-04-28T04:35:45.789Z,8.60
2023-04-28T04:36:09.061Z,8.60
2023-04-28T04:36:33.132Z,8.70
2023-04-28T04:36:58.112Z,8.60
2023-04-28T04:37:20.958Z,8.70
2023-04-28T04:37:44.190Z,8.70
2023-04-28T04:38:09.221Z,8.70
2023-04-28T04:38:32.003Z,8.70
2023-04-28T04:38:57.254Z,8.70
2023-04-28T04:39:20.086Z,8.70
2023-04-28T04:39:42.841Z,8.60
2023-04-28T04:40:09.605Z,8.70
2023-04-28T04:40:32.484Z,8.60
2023-04-28T04:40:55.262Z,8.70
2023-04-28T04:41:23.115Z,8.70
2023-04-28T04:41:45.942Z,8.70
2023-04-28T04:42:23.378Z,8.80
2023-04-28T04:42:48.107Z,8.80
2023-04-28T04:43:11.021Z,8.80
2023-04-28T04:43:33.785Z,8.80
2023-04-28T04:43:56.648Z,8.90
2023-04-28T04:44:20.069Z,8.90
2023-04-28T04:44:43.103Z,8.90
2023-04-28T04:45:08.066Z,8.90
2023-04-28T04:45:31.138Z,8.90
2023-04-28T04:45:54.471Z,8.90
2023-04-28T04:46:17.338Z,8.90
2023-04-28T04:46:40.281Z,8.90
2023-04-28T04:47:03.071Z,8.80
2023-04-28T04:47:25.894Z,8.80
2023-04-28T04:47:48.746Z,8.80
2023-04-28T04:48:11.744Z,8.80
2023-04-28T04:48:34.880Z,8.90
2023-04-28T04:48:57.837Z,8.80
2023-04-28T04:49:20.567Z,8.90
2023-04-28T04:49:46.081Z,8.80
2023-04-28T04:50:12.010Z,8.80
2023-04-28T04:50:34.902Z,8.80
2023-04-28T04:50:57.700Z,8.80
2023-04-28T04:51:20.517Z,8.80
2023-04-28T04:51:43.434Z,8.80
2023-04-28T04:52:07.160Z,8.80
2023-04-28T04:52:29.905Z,8.80
2023-04-28T04:52:54.648Z,8.80
2023-04-28T04:53:17.568Z,8.80
2023-04-28T04:53:40.344Z,8.90
2023-04-28T04:54:03.138Z,8.90
2023-04-28T04:54:26.091Z,8.80
2023-04-28T04:54:48.908Z,8.90
2023-04-28T04:55:14.136Z,8.80
2023-04-28T04:55:39.314Z,8.90
2023-04-28T04:56:02.876Z,8.90
2023-04-28T04:56:27.161Z,8.90
2023-04-28T04:56:49.850Z,9.00
2023-04-28T04:57:13.500Z,9.00
2023-04-28T04:57:36.199Z,9.10
2023-04-28T04:57:59.114Z,9.10
2023-04-28T04:58:21.785Z,9.10
2023-04-28T04:58:45.014Z,9.10
2023-04-28T04:59:10.460Z,9.10
2023-04-28T04:59:33.300Z,9.10
2023-04-28T04:59:56.178Z,9.20
2023-04-28T05:00:20.374Z,9.10
2023-04-28T05:00:43.450Z,9.20
2023-04-28T05:01:06.241Z,9.20
2023-04-28T05:01:28.979Z,9.20
2023-04-28T05:01:54.204Z,9.20
2023-04-28T05:02:17.409Z,9.20
2023-04-28T05:02:40.843Z,9.20
2023-04-28T05:03:06.389Z,9.20
2023-04-28T05:03:29.719Z,9.30
2023-04-28T05:03:53.059Z,9.30
2023-04-28T05:04:16.323Z,9.30
2023-04-28T05:04:39.488Z,9.30
2023-04-28T05:05:16.689Z,9.30
2023-04-28T05:05:46.329Z,9.30
2023-04-28T05:06:09.230Z,9.40
2023-04-28T05:06:31.956Z,9.40
2023-04-28T05:06:54.789Z,9.40
2023-04-28T05:07:17.642Z,9.40
2023-04-28T05:07:40.513Z,9.40
2023-04-28T05:08:03.840Z,9.40
2023-04-28T05:08:26.822Z,9.40
2023-04-28T05:08:51.714Z,9.50
2023-04-28T05:09:14.406Z,9.40
2023-04-28T05:09:37.169Z,9.40
2023-04-28T05:09:59.971Z,9.40
2023-04-28T05:10:22.786Z,9.50
2023-04-28T05:10:45.631Z,9.50
2023-04-28T05:11:10.755Z,9.50
2023-04-28T05:11:34.975Z,9.50
2023-04-28T05:11:57.992Z,9.50
2023-04-28T05:12:22.967Z,9.50
2023-04-28T05:12:48.341Z,9.50
2023-04-28T05:13:11.909Z,9.40
2023-04-28T05:13:34.738Z,9.50
2023-04-28T05:13:57.598Z,9.50
2023-04-28T05:14:20.311Z,9.50
2023-04-28T05:14:45.538Z,9.50